Ashford, CT (06278)

2:42 PM EDT on August 28, 2015 (GMT -0400)
APRSWXNET | | Change Station
CLOSE
Current Station
Personal Weather Station
Location: Ashford, CT
Elevation: 695 ft
Nearby Weather Stations

Elev 695 ft 41.89 °N, 72.14 °W | Updated 30 minutes ago

Partly Cloudy
Partly Cloudy
73 °F
Feels Like 76 °F
N
0
Wind Variable Wind from ENE
Gusts 1.0 mph

Today
High -- | Low -- °F
--% Chance of Precip.
Yesterday
High -- | Low -- °F
Precip. -- in
6:09 AM 7:29 PM
Waxing Gibbous, 98% visible
Pressure 30.15 in
Visibility 10.0 miles
Clouds Mostly Cloudy 6000 ft
Heat Index 76 °F
Dew Point 58 °F
Humidity 60%
Rainfall in
Snow Depth Not available.
UV 5 out of 12
Pollen 9.70 out of 12
Air Quality Not available.
Flu Activity Not available.
METAR KIJD 281752Z AUTO 33005KT 10SM BKN060 24/12 A3015 RMK AO2 SLP208 T02440122 10256 20150 58007
Pressure 30.15 in
Visibility 10.0 miles
Clouds Mostly Cloudy 6000 ft
Heat Index 76 °F
Dew Point 58 °F
Humidity 60%
Rainfall in
Snow Depth Not available.
UV 5 out of 12
Pollen 9.70 out of 12
Air Quality Not available.
Flu Activity Not available.
METAR KIJD 281752Z AUTO 33005KT 10SM BKN060 24/12 A3015 RMK AO2 SLP208 T02440122 10256 20150 58007

10-Day Weather Forecast

×

Almanac

Astronomy

Aug. 28, 2015 Rise Set
Actual Time
Civil Twilight
Nautical Twilight
Astronomical Twilight
Moon
Length of Visible Light
Length of Day
Tomorrow will be .
, % of the Moon is Illuminated

Today's Extremes

State Highs State Lows

Community

WunderPhotos

Upload Photos

1,850,453 photos uploaded!

WunderBlogs® & News

Nearby

Air Quality

  Air Quality AQ Index Pollutant
Not available.

Snow Depth

Station Depth Elevation

Earthquake Activity

City Distance Mag. Time & Date
Minimum magnitude displayed is 2.5.

Coastal Water Temperatures

Place Temperature

Stations

Nearby Weather Stations

Station Location Temp. Windchill Dew Point Humidity Wind Precip. Elev Updated Type